Time;durP1;ratioP1;P1;durP2;ratioP2;P2;SDS_P1;SDS_P2;PMS_P1;PMS_P2;Temp;Humidity;BMP_temperature;BMP_pressure;BME280_temperature;BME280_humidity;BME280_pressure;Samples;Min_cycle;Max_cycle;Signal;HPM_P1;HPM_P2
2021/01/22 00:02:24;;;;;;;12.33;8.03;;;;;;;3.50;79.31;101657.75;1775154;79;22796;-81
2021/01/22 00:04:58;;;;;;;12.05;7.78;;;;;;;3.49;79.10;101659.91;1748575;82;20899;-84
2021/01/22 00:07:35;;;;;;;9.93;7.08;;;;;;;3.48;78.98;101650.08;1745658;82;21932;-84
2021/01/22 00:10:18;;;;;;;14.05;8.65;;;;;;;3.45;79.04;101655.27;1748397;81;21516;-85
2021/01/22 00:13:05;;;;;;;11.70;7.67;;;;;;;3.50;78.91;101656.47;1748495;82;21100;-84
2021/01/22 00:15:41;;;;;;;11.90;7.60;;;;;;;3.46;78.82;101660.83;1717318;82;21599;-85
2021/01/22 00:18:24;;;;;;;14.83;7.87;;;;;;;3.38;78.76;101669.13;1745357;81;21042;-85
2021/01/22 00:21:04;;;;;;;11.95;7.80;;;;;;;3.29;78.69;101667.19;1749778;82;21296;-84
2021/01/22 00:23:38;;;;;;;11.97;7.62;;;;;;;3.15;78.77;101666.17;1749261;82;20990;-83
2021/01/22 00:26:25;;;;;;;12.88;7.42;;;;;;;3.03;78.95;101664.66;1717869;82;21109;-84
2021/01/22 00:28:59;;;;;;;11.48;7.30;;;;;;;2.94;79.20;101662.71;1747367;82;21437;-83
2021/01/22 00:31:34;;;;;;;14.07;7.22;;;;;;;2.85;79.53;101664.17;1746558;82;21184;-83
2021/01/22 00:34:03;;;;;;;11.55;7.00;;;;;;;2.78;79.81;101666.00;1747059;81;21188;-83
2021/01/22 00:36:35;;;;;;;11.12;7.33;;;;;;;2.73;80.07;101661.84;1748995;82;20927;-83
2021/01/22 00:39:04;;;;;;;10.23;7.03;;;;;;;2.72;80.41;101662.27;1747960;82;21093;-83
2021/01/22 00:45:30;;;;;;;9.28;7.03;;;;;;;2.89;81.00;101651.28;1749139;82;21148;-83
2021/01/22 00:48:03;;;;;;;13.43;7.85;;;;;;;3.01;80.71;101648.91;1746806;82;21205;-83
2021/01/22 00:50:40;;;;;;;12.18;7.45;;;;;;;3.03;80.51;101653.13;1747134;82;21069;-85
2021/01/22 00:53:19;;;;;;;10.00;6.70;;;;;;;3.03;80.31;101644.16;1746744;81;20927;-85
2021/01/22 00:55:50;;;;;;;10.48;7.50;;;;;;;3.00;80.10;101641.65;1720445;82;21022;-85
2021/01/22 00:58:50;;;;;;;10.48;7.12;;;;;;;2.99;80.08;101637.85;1799463;79;24519;-85
2021/01/22 01:01:33;;;;;;;8.88;6.42;;;;;;;2.91;80.08;101633.29;1762808;81;21183;-85
2021/01/22 01:04:03;;;;;;;9.78;7.35;;;;;;;2.84;80.08;101629.17;1762123;81;21290;-84
2021/01/22 01:06:46;;;;;;;14.05;8.03;;;;;;;2.78;80.11;101626.27;1730067;81;21356;-86
2021/01/22 01:09:22;;;;;;;10.95;7.28;;;;;;;2.72;80.27;101624.25;1760883;81;21163;-87
2021/01/22 01:11:57;;;;;;;12.28;7.47;;;;;;;2.65;80.41;101624.80;1756783;81;21496;-86
2021/01/22 01:14:31;;;;;;;14.63;8.35;;;;;;;2.55;80.54;101622.84;1757360;81;21080;-84
2021/01/22 01:17:12;;;;;;;19.50;10.00;;;;;;;2.47;80.45;101623.86;1760258;81;22055;-85
2021/01/22 01:19:49;;;;;;;85.38;25.60;;;;;;;2.39;80.32;101621.45;1761621;81;21585;-86
2021/01/22 01:22:18;;;;;;;77.10;26.62;;;;;;;2.31;80.22;101626.27;1760516;81;21500;-86
2021/01/22 01:24:53;;;;;;;99.00;33.10;;;;;;;2.20;80.27;101618.78;1729947;81;21459;-86
2021/01/22 01:35:52;;;;;;;18.70;9.93;;;;;;;2.01;81.45;101610.53;1766471;81;21448;-84
2021/01/22 01:38:50;;;;;;;20.75;10.65;;;;;;;2.07;82.13;101604.02;1765478;81;20977;-84
2021/01/22 01:41:32;;;;;;;12.07;8.18;;;;;;;2.14;82.32;101603.49;1763895;81;21174;-84
2021/01/22 01:44:17;;;;;;;13.48;7.83;;;;;;;2.17;82.45;101599.59;1761648;81;21013;-83
2021/01/22 01:46:53;;;;;;;11.48;7.45;;;;;;;2.25;82.60;101602.05;1761526;79;21384;-84
2021/01/22 01:49:21;;;;;;;10.88;7.08;;;;;;;2.39;82.71;101596.27;1761604;81;21151;-83
2021/01/22 01:51:51;;;;;;;10.48;7.17;;;;;;;2.59;82.51;101600.14;1764292;81;21139;-86
2021/01/22 01:54:42;;;;;;;13.18;7.35;;;;;;;2.72;82.06;101596.06;1764150;81;21156;-84
2021/01/22 01:57:25;;;;;;;9.68;6.92;;;;;;;2.80;81.65;101597.62;1733289;81;21063;-85
2021/01/22 02:00:34;;;;;;;9.53;6.45;;;;;;;2.87;81.33;101601.73;1765312;81;21326;-85
2021/01/22 02:03:10;;;;;;;9.85;6.75;;;;;;;2.90;81.07;101591.45;1761739;81;21088;-82
2021/01/22 02:05:43;;;;;;;10.25;6.45;;;;;;;3.02;80.70;101597.61;1760330;81;21780;-82
2021/01/22 02:08:44;;;;;;;8.98;6.28;;;;;;;3.17;80.19;101590.88;1762885;81;21155;-83
2021/01/22 02:11:56;;;;;;;10.53;6.90;;;;;;;3.32;79.60;101594.02;1735385;81;21115;-84
2021/01/22 02:14:30;;;;;;;10.70;7.00;;;;;;;3.28;79.16;101592.38;1762480;81;22028;-83
2021/01/22 02:17:20;;;;;;;12.73;6.53;;;;;;;3.19;78.92;101587.84;1734981;81;21001;-83
2021/01/22 02:23:59;;;;;;;8.63;6.33;;;;;;;3.16;79.02;101587.05;1764177;81;26609;-83
2021/01/22 02:26:43;;;;;;;11.20;6.90;;;;;;;3.26;78.64;101590.27;1759537;81;21504;-85
2021/01/22 02:29:52;;;;;;;12.88;6.85;;;;;;;3.16;78.43;101592.18;1762038;81;21203;-84
2021/01/22 02:32:31;;;;;;;9.00;6.42;;;;;;;3.03;78.35;101594.16;1762058;81;21766;-84
2021/01/22 02:35:05;;;;;;;12.13;7.65;;;;;;;2.86;78.47;101593.66;1764366;81;21602;-84
2021/01/22 02:37:43;;;;;;;10.53;7.28;;;;;;;2.73;78.62;101588.36;1761717;81;21203;-85
2021/01/22 02:40:13;;;;;;;9.98;5.92;;;;;;;2.62;78.92;101588.98;1764928;81;25038;-83
2021/01/22 02:42:49;;;;;;;11.57;7.28;;;;;;;2.54;79.31;101599.39;1763044;81;21159;-83
2021/01/22 02:45:20;;;;;;;8.63;6.28;;;;;;;2.51;79.79;101593.48;1763187;81;21092;-83
2021/01/22 02:48:06;;;;;;;9.05;6.37;;;;;;;2.61;80.19;101600.98;1763670;81;21135;-82
2021/01/22 02:50:38;;;;;;;8.80;6.65;;;;;;;2.71;80.33;101604.65;1764604;81;21187;-83
2021/01/22 02:53:10;;;;;;;9.75;6.58;;;;;;;2.81;80.25;101599.77;1764717;81;21472;-83
2021/01/22 02:56:46;;;;;;;10.38;7.55;;;;;;;2.87;80.02;101602.20;1756629;81;21135;-84
2021/01/22 02:59:42;;;;;;;11.55;7.25;;;;;;;2.93;79.92;101601.65;1754048;80;21096;-83
2021/01/22 03:02:36;;;;;;;12.50;6.58;;;;;;;3.00;79.73;101607.50;1752144;81;21163;-83
2021/01/22 03:05:44;;;;;;;9.83;6.97;;;;;;;3.10;79.56;101606.41;1746611;81;21088;-84
2021/01/22 03:08:21;;;;;;;8.48;6.15;;;;;;;3.23;79.16;101601.88;1753369;81;21156;-85
2021/01/22 03:11:01;;;;;;;8.98;6.08;;;;;;;3.26;78.79;101605.22;1753501;81;21197;-83
2021/01/22 03:14:09;;;;;;;10.72;7.20;;;;;;;3.27;78.66;101605.64;1752172;81;21188;-86
2021/01/22 03:16:48;;;;;;;9.70;6.62;;;;;;;3.30;78.46;101605.58;1748098;79;21540;-85
2021/01/22 03:19:23;;;;;;;12.10;7.50;;;;;;;3.21;78.21;101610.91;1721960;81;21132;-85
2021/01/22 03:21:53;;;;;;;17.77;9.68;;;;;;;3.03;77.44;101614.67;1744279;81;21631;-86
2021/01/22 03:24:28;;;;;;;18.70;10.30;;;;;;;2.79;77.12;101607.89;1747028;81;21848;-85
2021/01/22 03:26:59;;;;;;;23.60;11.20;;;;;;;2.54;77.18;101603.23;1751643;81;21060;-86
2021/01/22 03:29:30;;;;;;;24.67;11.97;;;;;;;2.31;77.39;101601.51;1747511;81;21587;-85
2021/01/22 03:32:04;;;;;;;19.17;10.93;;;;;;;2.12;77.80;101604.81;1743252;81;21862;-85
2021/01/22 03:34:54;;;;;;;23.90;12.43;;;;;;;1.93;77.78;101611.09;1747326;81;21124;-84
2021/01/22 03:37:26;;;;;;;24.63;12.23;;;;;;;1.49;79.01;101613.45;1748100;81;21674;-86
2021/01/22 03:39:59;;;;;;;26.52;12.00;;;;;;;1.49;79.01;101613.45;1746296;81;21503;-85
2021/01/22 03:42:28;;;;;;;23.20;11.93;;;;;;;1.39;79.65;101611.88;1746062;81;21504;-85
2021/01/22 03:45:03;;;;;;;26.15;12.58;;;;;;;1.27;80.06;101614.61;1748877;81;21112;-85
2021/01/22 03:47:42;;;;;;;23.50;13.18;;;;;;;1.17;80.59;101606.20;1750377;81;21136;-84
2021/01/22 03:50:19;;;;;;;23.92;13.10;;;;;;;1.12;81.15;101613.52;1751144;81;21895;-85
2021/01/22 03:52:48;;;;;;;23.00;12.63;;;;;;;1.07;81.53;101611.01;1747097;81;21097;-84
2021/01/22 03:55:21;;;;;;;20.40;12.37;;;;;;;1.00;81.74;101608.95;1751007;81;21219;-85
2021/01/22 03:57:49;;;;;;;23.32;12.60;;;;;;;0.94;81.98;101605.20;1752390;80;21309;-85
2021/01/22 04:00:26;;;;;;;25.32;12.88;;;;;;;0.90;82.42;101605.23;1756845;81;21064;-84
2021/01/22 04:03:04;;;;;;;20.08;11.00;;;;;;;0.86;82.75;101600.59;1756816;80;21360;-84
2021/01/22 04:05:36;;;;;;;15.53;9.63;;;;;;;0.82;83.06;101600.23;1748712;81;21131;-85
2021/01/22 04:08:06;;;;;;;15.60;8.87;;;;;;;0.80;83.40;101596.83;1748910;81;21499;-85
2021/01/22 04:10:35;;;;;;;16.95;8.83;;;;;;;0.80;83.92;101599.84;1750052;81;21794;-85
2021/01/22 04:13:04;;;;;;;20.70;10.70;;;;;;;0.79;84.25;101598.99;1749601;81;21544;-85
2021/01/22 04:15:47;;;;;;;18.15;10.05;;;;;;;0.77;84.14;101596.02;1759521;81;21856;-85
2021/01/22 04:18:23;;;;;;;16.52;10.43;;;;;;;0.73;84.54;101593.95;1749839;80;21488;-83
2021/01/22 04:20:52;;;;;;;16.17;9.98;;;;;;;0.74;84.82;101598.17;1754357;81;21159;-85
2021/01/22 04:23:21;;;;;;;18.85;10.32;;;;;;;0.70;84.47;101605.48;1750752;81;21575;-85
2021/01/22 04:26:09;;;;;;;27.65;18.52;;;;;;;0.65;84.54;101603.81;1755007;81;21140;-85
2021/01/22 04:29:11;;;;;;;57.17;43.35;;;;;;;0.61;84.50;101606.83;1757612;80;21283;-84
2021/01/22 04:31:41;;;;;;;53.10;37.63;;;;;;;0.56;84.51;101603.48;1751152;79;21136;-84
2021/01/22 04:38:57;;;;;;;33.78;22.22;;;;;;;0.43;84.21;101604.47;1756881;81;21021;-84
2021/01/22 04:41:56;;;;;;;37.60;25.70;;;;;;;0.37;84.51;101604.09;1757550;81;21033;-83
2021/01/22 04:44:34;;;;;;;39.80;22.80;;;;;;;0.34;85.01;101600.30;1757801;81;21383;-84
2021/01/22 04:47:03;;;;;;;34.00;21.57;;;;;;;0.40;85.56;101609.17;1756488;79;21067;-84
2021/01/22 04:49:33;;;;;;;33.18;21.80;;;;;;;0.43;85.95;101605.74;1756259;80;21147;-82
2021/01/22 04:52:17;;;;;;;21.97;13.65;;;;;;;0.53;86.39;101602.24;1757954;80;21038;-83
2021/01/22 04:55:00;;;;;;;15.28;9.23;;;;;;;0.60;86.27;101599.20;1757036;81;21069;-83
2021/01/22 04:57:31;;;;;;;13.15;8.45;;;;;;;0.76;86.99;101602.01;1758419;80;21341;-83
2021/01/22 05:00:06;;;;;;;24.37;13.03;;;;;;;1.01;87.60;101604.70;1752633;79;21168;-85
2021/01/22 05:02:36;;;;;;;29.35;14.65;;;;;;;1.19;87.32;101598.08;1750588;81;21472;-86
2021/01/22 05:05:12;;;;;;;26.15;15.20;;;;;;;1.27;87.06;101592.87;1753202;81;21064;-84
2021/01/22 05:07:48;;;;;;;17.98;11.60;;;;;;;1.36;86.74;101599.14;1753482;81;21049;-85
2021/01/22 05:10:19;;;;;;;22.40;13.85;;;;;;;1.39;86.04;101597.39;1752858;81;21464;-85
2021/01/22 05:12:48;;;;;;;17.95;11.55;;;;;;;1.45;85.71;101601.14;1748469;81;21203;-85
2021/01/22 05:15:26;;;;;;;25.92;15.63;;;;;;;1.43;85.15;101600.75;1751738;81;21200;-86
2021/01/22 05:18:09;;;;;;;17.23;11.43;;;;;;;1.40;85.07;101599.09;1750748;81;21117;-83
2021/01/22 05:20:46;;;;;;;29.42;16.15;;;;;;;1.39;84.77;101597.39;1750005;81;21485;-84
2021/01/22 05:23:16;;;;;;;27.10;17.67;;;;;;;1.35;84.25;101594.88;1721774;83;21295;-84
2021/01/22 05:26:04;;;;;;;21.02;14.28;;;;;;;1.30;84.10;101600.08;1719935;83;21100;-83
2021/01/22 05:28:36;;;;;;;25.65;16.12;;;;;;;1.24;84.04;101592.91;1723575;83;21144;-83
2021/01/22 05:31:14;;;;;;;27.95;17.02;;;;;;;1.22;84.77;101589.08;1720433;83;21486;-85
2021/01/22 05:34:01;;;;;;;28.47;18.27;;;;;;;1.28;85.75;101588.16;1718131;83;21151;-84
2021/01/22 05:36:32;;;;;;;21.17;14.95;;;;;;;1.35;86.16;101588.06;1723269;83;21243;-84
2021/01/22 05:39:21;;;;;;;27.93;17.25;;;;;;;1.40;86.37;101582.47;1722654;82;21546;-82
2021/01/22 05:41:58;;;;;;;26.57;17.90;;;;;;;1.46;86.58;101584.09;1719035;83;21563;-84
2021/01/22 05:44:28;;;;;;;25.88;17.00;;;;;;;1.47;86.60;101585.33;1715513;83;21203;-86
2021/01/22 05:47:10;;;;;;;28.10;17.98;;;;;;;1.49;86.42;101587.45;1718939;83;21508;-84
2021/01/22 05:49:56;;;;;;;30.47;18.37;;;;;;;1.48;86.29;101587.45;1720890;83;21885;-84
2021/01/22 05:52:28;;;;;;;23.18;15.75;;;;;;;1.47;86.33;101590.44;1723522;83;21124;-82
2021/01/22 05:55:22;;;;;;;20.62;12.93;;;;;;;1.51;86.53;101587.41;1723506;82;21515;-83
2021/01/22 06:01:05;;;;;;;14.07;9.63;;;;;;;1.93;87.61;101589.34;1808055;78;21984;-82
2021/01/22 06:04:07;;;;;;;16.20;10.00;;;;;;;2.26;87.33;101596.91;1780433;80;21010;-85
2021/01/22 06:06:42;;;;;;;13.43;8.53;;;;;;;2.72;86.27;101589.66;1778153;80;22205;-82
2021/01/22 06:14:04;;;;;;;14.87;8.60;;;;;;;3.22;83.39;101589.95;1778966;79;21687;-81
2021/01/22 06:16:49;;;;;;;12.95;8.20;;;;;;;3.39;82.05;101581.00;1776444;80;21539;-81
2021/01/22 06:19:19;;;;;;;12.70;8.43;;;;;;;3.49;81.09;101581.64;1775369;80;21045;-82
2021/01/22 06:21:52;;;;;;;14.55;9.15;;;;;;;3.55;80.53;101581.50;1749998;79;21985;-82
2021/01/22 06:24:49;;;;;;;14.53;9.60;;;;;;;3.58;80.25;101581.00;1768925;79;21603;-81
2021/01/22 06:27:17;;;;;;;11.83;8.40;;;;;;;3.68;79.67;101576.50;1777120;79;21176;-83
2021/01/22 06:29:50;;;;;;;12.00;8.80;;;;;;;3.76;79.22;101564.34;1775720;79;21673;-82
2021/01/22 06:32:21;;;;;;;13.90;8.68;;;;;;;3.85;79.04;101556.42;1774446;79;21638;-82
2021/01/22 06:34:50;;;;;;;16.07;8.93;;;;;;;3.92;78.71;101566.11;1774464;80;21893;-81
2021/01/22 06:37:24;;;;;;;14.70;8.80;;;;;;;4.02;78.47;101569.67;1775706;80;21172;-83
2021/01/22 06:39:53;;;;;;;12.18;8.80;;;;;;;4.12;78.11;101567.28;1773545;80;21760;-84
2021/01/22 06:42:24;;;;;;;15.58;9.30;;;;;;;4.22;77.76;101571.75;1778886;80;21171;-82
2021/01/22 06:44:57;;;;;;;14.58;8.25;;;;;;;4.30;77.48;101569.84;1782351;78;21178;-84
2021/01/22 06:47:55;;;;;;;13.85;8.95;;;;;;;4.37;77.30;101571.82;1785928;78;21426;-83
2021/01/22 06:50:46;;;;;;;18.20;9.33;;;;;;;4.44;77.09;101573.32;1784124;79;21112;-84
2021/01/22 06:53:35;;;;;;;12.20;8.70;;;;;;;4.50;76.85;101580.43;1775457;79;21179;-85
2021/01/22 06:56:24;;;;;;;12.80;9.10;;;;;;;4.56;76.64;101576.88;1772762;79;21660;-83
2021/01/22 06:58:52;;;;;;;15.03;9.60;;;;;;;4.61;76.29;101569.88;1756241;80;21224;-84
2021/01/22 07:02:40;;;;;;;14.63;9.13;;;;;;;4.68;76.00;101569.67;1737118;80;21298;-85
2021/01/22 07:20:32;;;;;;;12.90;9.30;;;;;;;4.93;75.07;101574.97;1817709;78;24039;-84
2021/01/22 07:23:38;;;;;;;16.57;9.40;;;;;;;4.92;74.87;101574.56;1795230;79;21076;-85
2021/01/22 07:26:54;;;;;;;15.25;9.70;;;;;;;5.01;74.92;101570.91;1783254;80;27382;-84
2021/01/22 07:30:09;;;;;;;16.35;10.18;;;;;;;5.00;74.95;101574.36;1756462;81;21595;-86
2021/01/22 07:32:54;;;;;;;15.20;10.30;;;;;;;5.01;75.05;101578.16;1754243;81;21380;-84
2021/01/22 07:35:29;;;;;;;12.73;8.63;;;;;;;4.97;75.16;101568.86;1758001;81;20958;-83
2021/01/22 07:38:35;;;;;;;16.20;8.48;;;;;;;4.98;75.31;101573.10;1725831;82;21164;-84
2021/01/22 07:41:04;;;;;;;14.20;8.83;;;;;;;5.07;75.25;101576.73;1721712;82;21148;-86
2021/01/22 07:43:36;;;;;;;16.35;9.90;;;;;;;5.20;74.98;101579.78;1706727;82;21211;-85
2021/01/22 07:46:27;;;;;;;;;;;;;;;;;;;;;
2021/01/22 07:49:19;;;;;;;13.93;9.25;;;;;;;5.45;74.48;101573.45;1807472;77;22882;-86
2021/01/22 07:51:49;;;;;;;12.63;8.38;;;;;;;5.56;74.27;101576.09;1810157;78;21167;-85
2021/01/22 07:54:17;;;;;;;11.57;7.67;;;;;;;5.66;73.89;101563.77;1777859;79;21383;-85
2021/01/22 07:56:48;;;;;;;12.28;8.23;;;;;;;5.79;73.26;101565.92;1771719;78;21218;-82
2021/01/22 07:59:40;;;;;;;11.93;7.87;;;;;;;5.92;72.61;101565.11;1710473;82;21211;-85
2021/01/22 08:02:29;;;;;;;12.65;7.65;;;;;;;6.06;72.04;101562.09;1684469;83;21295;-83
2021/01/22 08:05:09;;;;;;;11.53;7.62;;;;;;;6.18;71.63;101544.92;1693796;83;21777;-81
2021/01/22 08:07:51;;;;;;;13.62;8.00;;;;;;;6.29;71.25;101550.10;1667980;83;22110;-83
2021/01/22 08:10:37;;;;;;;10.38;7.53;;;;;;;6.40;70.67;101551.03;1685174;83;21513;-86
2021/01/22 08:13:23;;;;;;;9.70;7.10;;;;;;;6.61;70.01;101546.84;1958875;72;22708;-82
2021/01/22 08:16:03;;;;;;;11.65;7.92;;;;;;;6.67;69.81;101546.18;1845317;77;21583;-84
2021/01/22 08:18:34;;;;;;;11.97;7.08;;;;;;;6.77;69.61;101550.56;1828515;77;21870;-86
2021/01/22 08:21:05;;;;;;;13.13;7.12;;;;;;;6.88;69.45;101549.30;1862327;76;21617;-87
2021/01/22 08:24:24;;;;;;;12.53;7.17;;;;;;;6.96;68.87;101552.02;1829658;76;21144;-81
2021/01/22 08:27:04;;;;;;;12.23;7.30;;;;;;;7.10;68.93;101547.20;1856139;76;21177;-87
2021/01/22 08:30:06;;;;;;;;;;;;;;;;;;;;;
2021/01/22 08:33:02;;;;;;;11.53;7.35;;;;;;;7.42;67.41;101542.50;1774806;78;23354;-81
2021/01/22 08:35:34;;;;;;;14.75;9.93;;;;;;;7.51;66.22;101534.83;1791043;79;21157;-83
2021/01/22 08:38:12;;;;;;;15.85;9.70;;;;;;;7.62;66.16;101531.38;1778256;79;21604;-86
2021/01/22 08:40:44;;;;;;;14.40;9.10;;;;;;;7.72;65.89;101534.44;1729142;79;21591;-83
